To NAV CANADA Home Page Login to a new session Search on AWWS site Feedback and Comments Disclaimer Vers la page française équivalente Tips FAQ What's new on the site To the Forecasts and Observations / NOTAM section To "File a Flight Plan" website Publications and other links Update of the User's profile FIC Telephone Numbers My Weather Data Folder Route Weather Data Regional Weather Data Local Weather Data To the Forecasts and Observations / NOTAM section
Request Generated 08/22/2017 at 01:42:04 UTC . Weather information available at that time is displayed.

METAR/TAF

KINGSTON/ON    

METAR CYGK 220100Z 21005KT 15SM SCT250 22/20 A3000 RMK CI4 SLP161
DENSITY ALT 1100FT=
METAR CYGK 220000Z 20007KT 15SM BKN250 23/21 A3001 RMK CI6 SLP163
DENSITY ALT 1200FT=
METAR CYGK 212300Z 19009KT 15SM SCT250 23/21 A3001 RMK CI3 SLP164
DENSITY ALT 1300FT=

TAF CYGK 211938Z 2120/2203 19010KT P6SM SCT250
RMK NXT FCST WILL BE ISSUED AT 221145Z=
Your time UTC time
Weather data provided by Environment Canada and NAV CANADA